Time;durP1;ratioP1;P1;durP2;ratioP2;P2;SDS_P1;SDS_P2;PMS_P1;PMS_P2;Temp;Humidity;BMP_temperature;BMP_pressure;BME280_temperature;BME280_humidity;BME280_pressure;Samples;Min_cycle;Max_cycle;Signal;HPM_P1;HPM_P2
2022/07/02 00:00:49;;;;;;;0.60;0.60;;;23.30;54.90;;;;;;6194119;28;20453;-70
2022/07/02 00:03:52;;;;;;;0.50;0.50;;;23.30;54.90;;;;;;6195038;28;20037;-69
2022/07/02 00:06:53;;;;;;;0.50;0.50;;;23.30;54.90;;;;;;6194032;28;20041;-69
2022/07/02 00:09:56;;;;;;;0.60;0.60;;;23.30;54.90;;;;;;6194657;28;20030;-69
2022/07/02 00:12:56;;;;;;;0.55;0.55;;;23.30;54.90;;;;;;6194241;28;20041;-69
2022/07/02 00:15:57;;;;;;;0.45;0.40;;;23.30;54.90;;;;;;6194424;28;20054;-69
2022/07/02 00:18:59;;;;;;;0.70;0.50;;;23.30;54.80;;;;;;6195686;28;20031;-69
2022/07/02 00:22:02;;;;;;;0.70;0.50;;;23.30;54.90;;;;;;6194822;28;20034;-68
2022/07/02 00:25:02;;;;;;;0.50;0.50;;;23.30;54.90;;;;;;6194824;28;20041;-69
2022/07/02 00:28:06;;;;;;;0.63;0.50;;;23.30;54.80;;;;;;6177926;28;20496;-69
2022/07/02 00:31:07;;;;;;;0.50;0.47;;;23.30;54.90;;;;;;6194034;28;20481;-68
2022/07/02 00:34:08;;;;;;;0.40;0.40;;;23.30;54.80;;;;;;6193572;28;20044;-69
2022/07/02 00:37:10;;;;;;;0.43;0.43;;;23.30;54.80;;;;;;6194989;28;20034;-67
2022/07/02 00:40:11;;;;;;;0.60;0.60;;;23.30;54.80;;;;;;6194760;28;20659;-67
2022/07/02 00:43:12;;;;;;;0.50;0.50;;;23.30;54.80;;;;;;6193696;28;20093;-67
2022/07/02 00:46:14;;;;;;;0.70;0.60;;;23.30;54.80;;;;;;6193083;28;20026;-67
2022/07/02 00:49:17;;;;;;;0.60;0.60;;;23.30;54.80;;;;;;6193706;28;20564;-67
2022/07/02 00:52:17;;;;;;;0.60;0.50;;;23.30;54.80;;;;;;6193312;28;20030;-67
2022/07/02 00:55:18;;;;;;;0.40;0.40;;;23.30;54.80;;;;;;6173086;28;20027;-67
2022/07/02 00:58:19;;;;;;;0.60;0.52;;;23.30;54.80;;;;;;6193321;28;20046;-67
2022/07/02 01:01:19;;;;;;;0.50;0.50;;;23.30;54.80;;;;;;6193784;28;20105;-67
2022/07/02 01:04:20;;;;;;;0.95;0.50;;;23.30;54.80;;;;;;6193289;28;20029;-67
2022/07/02 01:07:22;;;;;;;0.82;0.60;;;23.30;54.80;;;;;;6194803;28;20022;-67
2022/07/02 01:10:22;;;;;;;0.50;0.50;;;23.30;54.80;;;;;;6194377;28;20205;-67
2022/07/02 01:13:25;;;;;;;0.50;0.50;;;23.30;54.80;;;;;;6193936;28;20026;-67
2022/07/02 01:16:26;;;;;;;0.32;0.32;;;23.30;54.80;;;;;;6194706;28;20038;-67
2022/07/02 01:19:26;;;;;;;0.68;0.60;;;23.30;54.80;;;;;;6194643;28;20034;-67
2022/07/02 01:22:38;;;;;;;0.40;0.40;;;23.30;54.80;;;;;;6193813;28;20031;-67
2022/07/02 01:25:38;;;;;;;0.55;0.50;;;23.30;54.80;;;;;;6194614;28;20027;-67
2022/07/02 01:28:39;;;;;;;0.60;0.40;;;23.30;54.80;;;;;;6193434;28;20041;-67
2022/07/02 01:31:40;;;;;;;0.65;0.50;;;23.30;54.80;;;;;;6192098;28;20026;-67
2022/07/02 01:34:46;;;;;;;0.45;0.45;;;23.30;54.80;;;;;;6193113;28;20485;-67
2022/07/02 01:37:46;;;;;;;0.50;0.50;;;23.30;54.80;;;;;;6196161;28;20038;-67
2022/07/02 01:40:47;;;;;;;0.55;0.52;;;23.30;54.80;;;;;;6197224;28;20101;-68
2022/07/02 01:43:47;;;;;;;0.63;0.50;;;23.30;54.80;;;;;;6197112;28;20574;-68
2022/07/02 01:46:49;;;;;;;0.47;0.47;;;23.30;54.80;;;;;;6197172;28;20034;-67
2022/07/02 01:49:50;;;;;;;0.50;0.50;;;23.30;54.80;;;;;;6197317;28;20101;-67
2022/07/02 01:52:51;;;;;;;0.50;0.50;;;23.30;54.80;;;;;;6196078;28;20030;-67
2022/07/02 01:55:52;;;;;;;1.95;0.50;;;23.30;54.80;;;;;;6174507;28;20404;-67
2022/07/02 01:58:53;;;;;;;0.50;0.50;;;23.30;54.80;;;;;;6193492;28;20038;-68
2022/07/02 02:01:54;;;;;;;0.75;0.50;;;23.20;54.70;;;;;;6196415;28;20404;-68
2022/07/02 02:04:55;;;;;;;0.93;0.50;;;23.30;54.80;;;;;;6197952;28;20057;-68
2022/07/02 02:07:55;;;;;;;0.75;0.60;;;23.30;54.80;;;;;;6198465;28;20022;-67
2022/07/02 02:10:56;;;;;;;0.60;0.60;;;23.30;54.80;;;;;;6198598;28;20081;-68
2022/07/02 02:13:58;;;;;;;0.40;0.40;;;23.30;54.80;;;;;;6196789;28;20105;-67
2022/07/02 02:16:59;;;;;;;0.50;0.50;;;23.30;54.70;;;;;;6196828;28;20348;-67
2022/07/02 02:20:00;;;;;;;0.60;0.60;;;23.30;54.80;;;;;;6196372;28;20064;-67
2022/07/02 02:23:04;;;;;;;0.60;0.57;;;23.30;54.80;;;;;;6197757;28;20030;-67
2022/07/02 02:26:05;;;;;;;0.50;0.50;;;23.30;54.70;;;;;;6196389;28;20038;-67
2022/07/02 02:29:05;;;;;;;0.30;0.30;;;23.20;54.70;;;;;;6198038;28;20380;-67
2022/07/02 02:32:06;;;;;;;0.60;0.60;;;23.30;54.80;;;;;;6196560;28;20374;-68
2022/07/02 02:35:07;;;;;;;0.60;0.50;;;23.20;54.70;;;;;;6197354;28;20027;-68
2022/07/02 02:38:08;;;;;;;0.80;0.70;;;23.30;54.80;;;;;;6197462;28;20089;-67
2022/07/02 02:41:09;;;;;;;1.73;0.50;;;23.30;54.80;;;;;;6196260;28;20049;-67
2022/07/02 02:44:09;;;;;;;0.90;0.68;;;23.20;54.60;;;;;;6196025;28;20045;-68
2022/07/02 02:47:10;;;;;;;0.60;0.60;;;23.20;54.70;;;;;;6195345;28;20141;-67
2022/07/02 02:50:10;;;;;;;0.88;0.68;;;23.20;54.70;;;;;;6196775;28;20080;-67
2022/07/02 02:53:11;;;;;;;0.60;0.50;;;23.20;54.70;;;;;;6192449;28;20026;-68
2022/07/02 02:56:12;;;;;;;0.43;0.43;;;23.20;54.60;;;;;;6173338;28;20970;-67
2022/07/02 02:59:13;;;;;;;0.47;0.47;;;23.20;54.60;;;;;;6186568;28;20441;-68
2022/07/02 03:02:14;;;;;;;0.50;0.50;;;23.20;54.60;;;;;;6197038;28;20084;-67
2022/07/02 03:05:14;;;;;;;0.40;0.40;;;23.20;54.70;;;;;;6197065;28;20030;-68
2022/07/02 03:08:15;;;;;;;0.47;0.47;;;23.20;54.70;;;;;;6196219;28;20030;-67
2022/07/02 03:11:15;;;;;;;0.40;0.40;;;23.20;54.70;;;;;;6195684;28;20269;-67
2022/07/02 03:14:16;;;;;;;0.50;0.50;;;23.20;54.70;;;;;;6195341;28;20027;-67
2022/07/02 03:17:17;;;;;;;0.60;0.60;;;23.20;54.60;;;;;;6195094;28;20034;-67
2022/07/02 03:20:17;;;;;;;0.47;0.47;;;23.20;54.70;;;;;;6195760;28;20492;-68
2022/07/02 03:23:18;;;;;;;0.90;0.50;;;23.20;54.70;;;;;;6195532;28;20022;-67
2022/07/02 03:26:19;;;;;;;0.55;0.47;;;23.20;54.70;;;;;;6195815;28;20081;-67
2022/07/02 03:29:19;;;;;;;1.23;0.50;;;23.20;54.70;;;;;;6196035;28;20026;-67
2022/07/02 03:32:20;;;;;;;0.40;0.40;;;23.20;54.60;;;;;;6196370;28;20112;-67
2022/07/02 03:35:21;;;;;;;0.60;0.50;;;23.20;54.70;;;;;;6196520;28;20026;-68
2022/07/02 03:38:21;;;;;;;0.68;0.60;;;23.20;54.70;;;;;;6195817;28;20065;-68
2022/07/02 03:41:22;;;;;;;0.50;0.50;;;23.20;54.70;;;;;;6195666;28;20026;-68
2022/07/02 03:44:22;;;;;;;0.50;0.50;;;23.20;54.70;;;;;;6194327;28;20027;-67
2022/07/02 03:47:23;;;;;;;0.45;0.45;;;23.20;54.70;;;;;;6194093;28;20398;-68
2022/07/02 03:50:24;;;;;;;0.50;0.50;;;23.20;54.70;;;;;;6194489;28;20034;-67
2022/07/02 03:53:24;;;;;;;0.65;0.60;;;23.20;54.70;;;;;;6187662;28;20022;-67
2022/07/02 03:56:25;;;;;;;0.80;0.57;;;23.20;55.10;;;;;;6194461;28;20515;-67
2022/07/02 03:59:26;;;;;;;0.47;0.47;;;23.20;54.70;;;;;;6193589;28;20054;-67
2022/07/02 04:02:26;;;;;;;0.52;0.52;;;23.20;54.70;;;;;;6195195;28;20030;-67
2022/07/02 04:05:27;;;;;;;0.60;0.60;;;23.20;54.70;;;;;;6194398;28;20027;-67
2022/07/02 04:08:28;;;;;;;0.40;0.40;;;23.20;54.70;;;;;;6194936;28;20239;-68
2022/07/02 04:11:29;;;;;;;0.70;0.40;;;23.20;54.70;;;;;;6194946;28;20432;-68
2022/07/02 04:14:30;;;;;;;0.45;0.45;;;23.20;54.70;;;;;;6194107;28;20026;-67
2022/07/02 04:17:30;;;;;;;0.43;0.43;;;23.20;54.70;;;;;;6193664;28;20516;-67
2022/07/02 04:20:32;;;;;;;0.50;0.50;;;23.20;54.70;;;;;;6193571;28;20034;-68
2022/07/02 04:23:33;;;;;;;0.40;0.40;;;23.20;54.70;;;;;;6194073;28;20034;-67
2022/07/02 04:26:33;;;;;;;0.43;0.43;;;23.20;54.70;;;;;;6193885;28;20077;-67
2022/07/02 04:29:34;;;;;;;1.40;0.63;;;23.20;54.70;;;;;;6194456;28;20108;-68
2022/07/02 04:32:35;;;;;;;0.60;0.60;;;23.20;54.70;;;;;;6194809;28;20050;-67
2022/07/02 04:35:36;;;;;;;0.50;0.50;;;23.20;54.70;;;;;;6194958;28;20524;-68
2022/07/02 04:38:37;;;;;;;0.73;0.60;;;23.20;54.70;;;;;;6195093;28;20456;-67
2022/07/02 04:41:38;;;;;;;0.50;0.40;;;23.20;54.70;;;;;;6194749;28;20125;-67
2022/07/02 04:44:39;;;;;;;0.70;0.60;;;23.20;54.70;;;;;;6193666;28;20102;-67
2022/07/02 04:47:39;;;;;;;0.65;0.50;;;23.20;54.60;;;;;;6192870;28;20082;-68
2022/07/02 04:50:40;;;;;;;0.95;0.60;;;23.20;54.70;;;;;;6193149;28;20456;-68
2022/07/02 04:53:41;;;;;;;0.50;0.50;;;23.20;54.70;;;;;;6184654;28;20023;-67
2022/07/02 04:56:41;;;;;;;0.57;0.50;;;23.20;54.60;;;;;;6187252;28;20260;-68
2022/07/02 05:03:39;;;;;;;0.60;0.50;;;23.20;54.70;;;;;;6169674;28;20039;-68
2022/07/02 05:06:39;;;;;;;0.60;0.60;;;23.20;54.70;;;;;;6185679;28;20512;-68
2022/07/02 05:09:40;;;;;;;0.63;0.55;;;23.20;54.60;;;;;;6194637;28;20101;-68
2022/07/02 05:12:41;;;;;;;0.50;0.50;;;23.20;54.70;;;;;;6199226;28;20473;-67
2022/07/02 05:15:41;;;;;;;0.60;0.60;;;23.20;54.60;;;;;;6198229;28;20026;-67
2022/07/02 05:18:43;;;;;;;0.57;0.50;;;23.20;54.60;;;;;;6197888;28;20042;-67
2022/07/02 05:21:43;;;;;;;0.55;0.55;;;23.20;54.70;;;;;;6197781;28;20031;-67
2022/07/02 05:24:44;;;;;;;0.40;0.40;;;23.20;54.60;;;;;;6197786;28;20539;-67
2022/07/02 05:27:45;;;;;;;0.50;0.50;;;23.20;54.60;;;;;;6198373;28;20469;-67
2022/07/02 05:30:45;;;;;;;0.52;0.50;;;23.20;54.60;;;;;;6197507;28;20805;-67
2022/07/02 05:33:46;;;;;;;0.60;0.55;;;23.20;54.60;;;;;;6197850;28;20029;-67
2022/07/02 05:36:47;;;;;;;0.40;0.40;;;23.20;54.70;;;;;;6198826;28;20026;-67
2022/07/02 05:39:48;;;;;;;0.50;0.50;;;23.20;54.60;;;;;;6198055;28;20085;-67
2022/07/02 05:42:48;;;;;;;0.40;0.40;;;23.20;54.60;;;;;;6198624;28;20453;-68
2022/07/02 05:46:05;;;;;;;0.50;0.50;;;23.20;54.60;;;;;;6198857;28;20084;-67
2022/07/02 05:49:05;;;;;;;0.60;0.60;;;23.20;54.60;;;;;;6126558;29;20032;-68
2022/07/02 05:52:06;;;;;;;0.73;0.50;;;23.20;54.60;;;;;;6125442;29;20439;-68
2022/07/02 05:55:07;;;;;;;0.63;0.45;;;23.20;54.60;;;;;;6125713;29;20043;-68
2022/07/02 05:58:08;;;;;;;0.52;0.50;;;23.20;54.60;;;;;;6125804;29;20035;-68
2022/07/02 06:01:09;;;;;;;0.50;0.50;;;23.20;54.60;;;;;;6125076;29;20422;-68
2022/07/02 06:04:10;;;;;;;0.50;0.50;;;23.20;54.60;;;;;;6124910;29;20031;-67
2022/07/02 06:10:29;;;;;;;0.40;0.40;;;23.20;54.70;;;;;;6126250;29;20453;-67
2022/07/02 06:13:30;;;;;;;0.55;0.55;;;23.20;54.60;;;;;;6126138;29;20034;-67
2022/07/02 06:16:31;;;;;;;0.50;0.50;;;23.20;54.60;;;;;;6126433;29;20156;-67
2022/07/02 06:19:31;;;;;;;0.60;0.60;;;23.20;54.70;;;;;;6125620;29;20102;-67
2022/07/02 06:22:32;;;;;;;0.50;0.50;;;23.20;54.60;;;;;;6123537;29;20475;-67
2022/07/02 06:25:33;;;;;;;0.63;0.60;;;23.20;54.70;;;;;;6124646;29;20107;-67
2022/07/02 06:28:34;;;;;;;0.88;0.60;;;23.20;54.60;;;;;;6124473;29;20028;-67
2022/07/02 06:31:36;;;;;;;0.73;0.70;;;23.20;54.60;;;;;;6124278;29;20125;-67
2022/07/02 06:34:36;;;;;;;0.40;0.40;;;23.20;54.60;;;;;;6124879;29;20036;-68
2022/07/02 06:37:37;;;;;;;0.60;0.60;;;23.20;54.60;;;;;;6126140;29;20035;-67
2022/07/02 06:40:38;;;;;;;0.80;0.60;;;23.20;55.30;;;;;;6125846;29;20063;-67
2022/07/02 06:43:39;;;;;;;0.80;0.70;;;23.20;54.60;;;;;;6125453;29;20032;-67
2022/07/02 06:46:39;;;;;;;0.73;0.70;;;23.20;54.60;;;;;;6134503;28;20133;-68
2022/07/02 06:49:40;;;;;;;0.90;0.60;;;23.20;54.70;;;;;;6172927;28;20023;-68
2022/07/02 06:52:44;;;;;;;0.55;0.50;;;23.20;54.60;;;;;;6172004;28;20474;-67
2022/07/02 06:55:44;;;;;;;0.60;0.57;;;23.20;54.60;;;;;;6148567;29;20090;-67
2022/07/02 06:58:45;;;;;;;0.47;0.40;;;23.20;54.60;;;;;;6167255;28;20043;-68
2022/07/02 07:01:46;;;;;;;1.15;0.60;;;23.20;54.60;;;;;;6173757;28;20508;-68
2022/07/02 07:04:46;;;;;;;0.50;0.50;;;23.20;54.60;;;;;;6173331;28;20026;-67
2022/07/02 07:07:47;;;;;;;0.93;0.70;;;23.20;54.60;;;;;;6172818;28;20489;-67
2022/07/02 07:10:48;;;;;;;0.70;0.60;;;23.20;54.60;;;;;;6171886;28;20055;-67
2022/07/02 07:13:50;;;;;;;0.77;0.70;;;23.20;54.60;;;;;;6172838;28;20027;-67
2022/07/02 07:16:50;;;;;;;1.13;0.73;;;23.20;54.60;;;;;;6173498;28;20027;-68
2022/07/02 07:19:51;;;;;;;1.42;0.70;;;23.20;54.60;;;;;;6172493;28;20097;-67
2022/07/02 07:22:52;;;;;;;0.50;0.50;;;23.20;54.60;;;;;;6171699;28;20030;-68
2022/07/02 07:25:52;;;;;;;0.50;0.50;;;23.20;54.60;;;;;;6172596;28;20031;-67
2022/07/02 07:28:54;;;;;;;0.40;0.40;;;23.20;54.60;;;;;;6172917;28;20027;-67
2022/07/02 07:31:54;;;;;;;0.68;0.68;;;23.20;54.60;;;;;;6166598;28;20037;-68
2022/07/02 07:34:55;;;;;;;0.80;0.60;;;23.20;54.60;;;;;;6170454;28;20026;-68
2022/07/02 07:38:00;;;;;;;0.60;0.60;;;23.20;54.60;;;;;;6170838;28;20039;-67
2022/07/02 07:41:00;;;;;;;0.65;0.63;;;23.20;54.60;;;;;;6170685;28;20045;-67
2022/07/02 07:44:03;;;;;;;0.65;0.60;;;23.20;54.70;;;;;;6172102;28;20109;-67
2022/07/02 07:47:03;;;;;;;0.65;0.50;;;23.20;54.60;;;;;;6172338;28;20043;-67
2022/07/02 07:50:05;;;;;;;0.50;0.50;;;23.20;54.60;;;;;;6171802;28;20041;-67
2022/07/02 07:53:05;;;;;;;1.23;0.60;;;23.20;54.60;;;;;;6167297;28;20159;-67
2022/07/02 07:56:06;;;;;;;0.40;0.40;;;23.20;54.60;;;;;;6146987;29;20023;-67
2022/07/02 07:59:08;;;;;;;0.50;0.50;;;23.20;54.70;;;;;;6159919;28;20901;-67
2022/07/02 08:02:09;;;;;;;2.53;0.60;;;23.20;54.70;;;;;;6169656;28;20078;-67
2022/07/02 08:05:09;;;;;;;0.50;0.50;;;23.20;54.60;;;;;;6169939;28;20034;-67
2022/07/02 08:08:10;;;;;;;1.10;0.60;;;23.20;54.60;;;;;;6171487;28;20023;-67
2022/07/02 08:11:11;;;;;;;0.50;0.50;;;23.20;54.70;;;;;;6170301;28;20069;-68
2022/07/02 08:14:11;;;;;;;0.50;0.50;;;23.20;54.70;;;;;;6170078;28;20034;-68
2022/07/02 08:17:12;;;;;;;0.75;0.73;;;23.20;54.70;;;;;;6169888;28;20513;-68
2022/07/02 08:20:13;;;;;;;0.82;0.60;;;23.20;54.70;;;;;;6170957;28;20050;-67
2022/07/02 08:23:14;;;;;;;0.68;0.68;;;23.20;54.60;;;;;;6169624;28;20065;-68
2022/07/02 08:26:15;;;;;;;0.70;0.60;;;23.20;54.60;;;;;;6169397;28;20540;-68
2022/07/02 08:29:15;;;;;;;0.60;0.60;;;23.20;54.60;;;;;;6171066;28;20035;-68
2022/07/02 08:32:16;;;;;;;0.77;0.73;;;23.20;54.80;;;;;;6169123;28;20501;-68
2022/07/02 08:35:17;;;;;;;0.73;0.60;;;23.20;54.70;;;;;;6169872;28;20085;-68
2022/07/02 08:38:18;;;;;;;0.52;0.47;;;23.20;54.70;;;;;;6170781;28;20084;-68
2022/07/02 08:41:19;;;;;;;0.80;0.60;;;23.20;54.70;;;;;;6171175;28;20474;-67
2022/07/02 08:44:24;;;;;;;0.50;0.50;;;23.20;54.70;;;;;;6170491;28;20023;-67
2022/07/02 08:47:26;;;;;;;0.43;0.40;;;23.20;54.70;;;;;;6169259;28;20046;-68
2022/07/02 08:50:27;;;;;;;0.65;0.60;;;23.20;54.70;;;;;;6169078;28;20544;-68
2022/07/02 08:53:28;;;;;;;0.57;0.50;;;23.20;54.70;;;;;;6162625;28;20019;-68
2022/07/02 08:56:31;;;;;;;0.52;0.52;;;23.20;54.70;;;;;;6169962;28;20023;-69
2022/07/02 08:59:32;;;;;;;0.50;0.40;;;23.20;54.70;;;;;;6170803;28;20474;-67
2022/07/02 09:02:35;;;;;;;0.60;0.60;;;23.20;54.70;;;;;;6165972;28;20090;-67
2022/07/02 09:05:37;;;;;;;1.00;0.57;;;23.20;54.70;;;;;;6168943;28;20026;-68
2022/07/02 09:08:39;;;;;;;0.40;0.40;;;23.20;54.70;;;;;;6169148;28;20019;-67
2022/07/02 09:11:40;;;;;;;0.50;0.50;;;23.20;54.70;;;;;;6168882;28;20066;-67
2022/07/02 09:14:41;;;;;;;0.50;0.50;;;23.20;54.70;;;;;;6169030;28;20389;-67
2022/07/02 09:17:43;;;;;;;0.50;0.50;;;23.20;54.70;;;;;;6169758;28;20036;-68
2022/07/02 09:20:44;;;;;;;0.50;0.50;;;23.20;54.70;;;;;;6170392;28;20058;-68
2022/07/02 09:23:50;;;;;;;0.40;0.40;;;23.10;54.60;;;;;;6170691;28;20039;-67
2022/07/02 09:27:02;;;;;;;0.55;0.50;;;23.20;54.70;;;;;;6169683;28;20046;-68
2022/07/02 09:30:05;;;;;;;0.90;0.50;;;23.20;54.70;;;;;;6169266;28;20078;-68
2022/07/02 09:33:30;;;;;;;0.60;0.52;;;23.20;54.70;;;;;;6169735;28;20110;-68
2022/07/02 09:36:35;;;;;;;0.47;0.45;;;23.20;54.70;;;;;;6158397;28;20139;-68
2022/07/02 09:39:36;;;;;;;;;;;23.20;54.70;;;;;;6164793;28;20035;-68
2022/07/02 09:42:36;;;;;;;0.50;0.50;;;23.20;54.70;;;;;;6165707;28;20365;-68
2022/07/02 09:45:37;;;;;;;0.50;0.47;;;23.20;54.70;;;;;;6166069;28;20038;-69
2022/07/02 09:48:38;;;;;;;0.60;0.60;;;23.20;54.70;;;;;;6164991;28;20054;-69
2022/07/02 09:51:54;;;;;;;0.45;0.45;;;23.20;54.70;;;;;;6166239;28;20109;-68
2022/07/02 09:54:55;;;;;;;0.40;0.40;;;23.20;54.70;;;;;;6148790;28;20027;-68
2022/07/02 09:57:58;;;;;;;0.47;0.47;;;23.20;54.70;;;;;;6168932;28;20165;-69
2022/07/02 10:01:03;;;;;;;0.52;0.50;;;23.20;54.70;;;;;;6168915;28;20086;-69
2022/07/02 10:04:04;;;;;;;0.50;0.47;;;23.20;54.70;;;;;;6166812;28;20489;-69
2022/07/02 10:07:05;;;;;;;0.68;0.40;;;23.20;54.70;;;;;;6167640;28;20058;-69
2022/07/02 10:10:06;;;;;;;0.50;0.50;;;23.20;54.70;;;;;;6166839;28;20497;-69
2022/07/02 10:13:12;;;;;;;0.52;0.50;;;23.10;55.30;;;;;;6167570;28;20046;-68
2022/07/02 10:16:14;;;;;;;0.50;0.50;;;23.20;54.70;;;;;;6165205;28;20030;-68
2022/07/02 10:19:15;;;;;;;0.40;0.40;;;23.20;54.70;;;;;;6164251;28;20043;-69
2022/07/02 10:22:17;;;;;;;0.38;0.38;;;23.10;54.60;;;;;;6163969;28;20089;-68
2022/07/02 10:25:18;;;;;;;0.57;0.47;;;23.20;54.70;;;;;;6164515;28;20019;-69
2022/07/02 10:28:19;;;;;;;0.40;0.40;;;23.20;54.70;;;;;;6163779;28;20572;-69
2022/07/02 10:31:20;;;;;;;0.50;0.50;;;23.10;54.60;;;;;;6158819;28;20337;-68
2022/07/02 10:34:39;;;;;;;0.57;0.50;;;23.10;54.60;;;;;;6160447;28;20054;-68
2022/07/02 10:37:41;;;;;;;0.40;0.40;;;23.10;54.60;;;;;;6160398;28;20050;-69
2022/07/02 10:40:49;;;;;;;0.40;0.40;;;23.10;54.60;;;;;;6163053;28;20385;-69
2022/07/02 10:43:49;;;;;;;0.40;0.40;;;23.20;54.70;;;;;;6164296;28;20030;-68
2022/07/02 10:46:50;;;;;;;0.55;0.45;;;23.10;54.60;;;;;;6162894;28;20055;-68
2022/07/02 10:49:58;;;;;;;0.40;0.40;;;23.10;54.60;;;;;;6164684;28;20062;-68
2022/07/02 10:53:07;;;;;;;0.30;0.30;;;23.10;54.60;;;;;;6166368;28;20055;-69
2022/07/02 10:56:08;;;;;;;0.50;0.50;;;23.10;54.60;;;;;;6167076;28;20378;-69
2022/07/02 10:59:22;;;;;;;0.52;0.50;;;23.10;54.60;;;;;;6167273;28;20027;-69
2022/07/02 11:02:34;;;;;;;0.40;0.40;;;23.10;54.60;;;;;;6166661;28;20041;-69
2022/07/02 11:05:35;;;;;;;1.08;0.52;;;23.10;54.60;;;;;;6167221;28;20074;-69
2022/07/02 11:08:43;;;;;;;0.73;0.50;;;23.10;54.60;;;;;;6166264;28;20027;-69
2022/07/02 11:11:53;;;;;;;0.45;0.40;;;23.10;54.60;;;;;;6166002;28;20075;-68
2022/07/02 11:14:57;;;;;;;0.45;0.45;;;23.10;54.60;;;;;;6167238;28;20023;-68
2022/07/02 11:18:02;;;;;;;0.40;0.40;;;23.10;54.60;;;;;;6165823;28;20478;-69
2022/07/02 11:21:03;;;;;;;;;;;23.10;54.60;;;;;;6167084;28;20030;-69
2022/07/02 11:24:04;;;;;;;0.40;0.40;;;23.10;54.60;;;;;;6164905;28;19905;-68
2022/07/02 11:27:06;;;;;;;0.40;0.40;;;23.10;54.70;;;;;;6165897;28;20421;-69
2022/07/02 11:30:07;;;;;;;0.40;0.35;;;23.10;54.60;;;;;;6166753;28;20070;-68
2022/07/02 11:33:14;;;;;;;0.50;0.40;;;23.10;54.60;;;;;;6165566;28;20548;-69
2022/07/02 11:36:15;;;;;;;0.30;0.30;;;23.10;54.60;;;;;;6166029;28;20026;-69
2022/07/02 11:39:18;;;;;;;0.45;0.45;;;23.10;54.60;;;;;;6165003;28;20061;-68
2022/07/02 11:42:35;;;;;;;0.40;0.40;;;23.10;54.60;;;;;;6165474;28;20041;-68
2022/07/02 11:45:45;;;;;;;0.30;0.30;;;23.10;54.60;;;;;;6165803;28;20504;-68
2022/07/02 11:48:47;;;;;;;0.90;0.50;;;23.10;54.60;;;;;;6165431;28;20055;-68
2022/07/02 11:51:49;;;;;;;0.30;0.30;;;23.10;54.60;;;;;;6165577;28;20450;-68
2022/07/02 11:54:50;;;;;;;0.40;0.30;;;23.10;54.70;;;;;;6165102;28;20030;-69
2022/07/02 11:57:51;;;;;;;0.73;0.60;;;23.10;54.60;;;;;;6163239;28;20031;-68
2022/07/02 12:00:52;;;;;;;0.75;0.40;;;23.10;54.60;;;;;;6167178;28;20477;-69
2022/07/02 12:04:04;;;;;;;0.45;0.45;;;23.10;54.70;;;;;;6167815;28;20078;-69
2022/07/02 12:07:05;;;;;;;0.28;0.28;;;23.10;54.60;;;;;;6169058;28;20023;-69
2022/07/02 12:10:06;;;;;;;0.30;0.30;;;23.10;54.60;;;;;;6170122;28;20462;-69
2022/07/02 12:13:11;;;;;;;0.40;0.40;;;23.10;54.60;;;;;;6170237;28;20084;-69
2022/07/02 12:16:15;;;;;;;0.30;0.30;;;23.10;54.60;;;;;;6170639;28;20102;-68
2022/07/02 12:19:16;;;;;;;0.40;0.40;;;23.10;54.70;;;;;;6167903;28;20482;-69
2022/07/02 12:22:29;;;;;;;0.40;0.40;;;23.10;54.70;;;;;;6167416;28;20034;-68
2022/07/02 12:25:29;;;;;;;0.43;0.40;;;23.10;54.70;;;;;;6169540;28;20085;-69
2022/07/02 12:31:52;;;;;;;0.38;0.38;;;23.10;54.70;;;;;;6150827;28;20038;-69
2022/07/02 12:34:55;;;;;;;0.30;0.30;;;23.10;54.70;;;;;;6162371;28;20504;-68
2022/07/02 12:37:57;;;;;;;0.30;0.28;;;23.10;54.70;;;;;;6167623;28;20477;-69
2022/07/02 12:40:59;;;;;;;0.47;0.40;;;23.10;54.70;;;;;;6143869;28;20089;-68
2022/07/02 12:44:01;;;;;;;0.30;0.30;;;23.10;54.70;;;;;;6179433;28;20050;-68
2022/07/02 12:47:02;;;;;;;0.47;0.47;;;23.10;54.70;;;;;;6192760;28;20052;-68
2022/07/02 12:50:14;;;;;;;0.40;0.40;;;23.10;54.70;;;;;;6170770;28;20118;-69
2022/07/02 12:53:20;;;;;;;0.50;0.50;;;23.10;54.70;;;;;;6161132;28;20034;-69
2022/07/02 12:56:21;;;;;;;0.50;0.50;;;23.10;54.70;;;;;;6148811;28;20110;-69
2022/07/02 12:59:21;;;;;;;0.40;0.40;;;23.20;54.90;;;;;;6168561;28;20030;-69
2022/07/02 13:02:28;;;;;;;0.40;0.30;;;23.20;55.40;;;;;;6168845;28;20520;-69
2022/07/02 13:05:29;;;;;;;0.40;0.40;;;23.20;54.70;;;;;;6168486;28;20019;-68
2022/07/02 13:08:30;;;;;;;0.40;0.40;;;23.20;54.70;;;;;;6159447;28;20466;-69
2022/07/02 13:11:32;;;;;;;0.32;0.32;;;23.20;54.60;;;;;;6165310;28;20078;-68
2022/07/02 13:14:32;;;;;;;0.30;0.30;;;23.20;54.60;;;;;;6168589;28;20027;-69
2022/07/02 13:17:33;;;;;;;3.53;0.40;;;23.20;54.60;;;;;;6163059;28;20420;-69
2022/07/02 13:20:34;;;;;;;0.30;0.30;;;23.20;54.80;;;;;;6169537;28;20034;-69
2022/07/02 13:23:35;;;;;;;0.30;0.30;;;23.20;54.70;;;;;;6167958;28;20034;-68
2022/07/02 13:26:35;;;;;;;0.52;0.43;;;23.20;54.70;;;;;;6169715;28;20019;-69
2022/07/02 13:29:36;;;;;;;0.30;0.30;;;23.20;54.70;;;;;;6169100;28;20023;-68
2022/07/02 13:32:37;;;;;;;0.20;0.20;;;23.20;54.80;;;;;;6170292;28;20297;-68
2022/07/02 13:35:38;;;;;;;0.35;0.30;;;23.20;54.80;;;;;;6172917;28;20539;-69
2022/07/02 13:38:38;;;;;;;0.30;0.30;;;23.20;54.80;;;;;;6173173;28;20062;-68
2022/07/02 13:41:39;;;;;;;0.40;0.40;;;23.20;54.80;;;;;;6173306;28;20042;-69
2022/07/02 13:44:40;;;;;;;0.43;0.40;;;23.20;54.80;;;;;;6173076;28;20386;-68
2022/07/02 13:47:41;;;;;;;0.40;0.40;;;23.10;54.70;;;;;;6173309;28;20233;-69
2022/07/02 13:50:42;;;;;;;0.50;0.47;;;23.10;54.70;;;;;;6172468;28;20374;-69
2022/07/02 13:53:42;;;;;;;0.47;0.43;;;23.20;54.80;;;;;;6162598;28;20035;-68
2022/07/02 13:56:43;;;;;;;0.20;0.20;;;23.10;54.70;;;;;;6197077;28;20109;-69
2022/07/02 13:59:44;;;;;;;0.30;0.30;;;23.10;54.80;;;;;;6185924;28;20392;-69
2022/07/02 14:02:46;;;;;;;0.40;0.32;;;23.10;54.70;;;;;;6172031;28;20027;-68
2022/07/02 14:05:47;;;;;;;0.32;0.32;;;23.10;54.70;;;;;;6171988;28;20470;-68
2022/07/02 14:08:48;;;;;;;0.47;0.35;;;23.10;54.80;;;;;;6171662;28;20324;-69
2022/07/02 14:11:48;;;;;;;0.38;0.38;;;23.10;54.70;;;;;;6172708;28;20034;-68
2022/07/02 14:14:50;;;;;;;0.93;0.30;;;23.10;54.80;;;;;;6172688;28;20015;-69
2022/07/02 14:17:50;;;;;;;0.30;0.30;;;23.10;54.80;;;;;;6172633;28;20026;-69
2022/07/02 14:20:51;;;;;;;0.70;0.50;;;23.10;54.70;;;;;;6172450;28;20027;-68
2022/07/02 14:23:51;;;;;;;0.32;0.30;;;23.10;54.70;;;;;;6171757;28;20085;-68
2022/07/02 14:26:52;;;;;;;0.35;0.35;;;23.10;54.70;;;;;;6171244;28;20047;-68
2022/07/02 14:29:53;;;;;;;0.30;0.30;;;23.10;54.80;;;;;;6170854;28;20042;-68
2022/07/02 14:32:54;;;;;;;0.32;0.30;;;23.20;54.70;;;;;;6170122;28;20077;-69
2022/07/02 14:35:56;;;;;;;1.25;0.30;;;23.20;54.80;;;;;;6157114;28;20042;-68
2022/07/02 14:38:56;;;;;;;0.40;0.40;;;23.20;54.70;;;;;;6167311;28;20132;-68
2022/07/02 14:41:58;;;;;;;0.40;0.40;;;23.20;54.70;;;;;;6172937;28;20035;-68
2022/07/02 14:44:59;;;;;;;0.93;0.57;;;23.20;54.70;;;;;;6163916;28;20034;-69
2022/07/02 14:47:59;;;;;;;0.80;0.40;;;23.20;54.80;;;;;;6170531;28;20399;-68
2022/07/02 14:51:00;;;;;;;1.10;0.60;;;23.20;54.80;;;;;;6169853;28;20102;-68
2022/07/02 14:54:02;;;;;;;0.45;0.40;;;23.20;54.80;;;;;;6178415;28;20300;-68
2022/07/02 14:57:03;;;;;;;0.50;0.30;;;23.20;54.80;;;;;;6173314;28;20474;-69
2022/07/02 15:00:07;;;;;;;0.52;0.40;;;23.10;54.70;;;;;;6167160;28;20101;-69
2022/07/02 15:03:08;;;;;;;0.80;0.50;;;23.10;54.70;;;;;;6152959;28;20557;-68
2022/07/02 15:06:11;;;;;;;0.95;0.43;;;23.10;54.70;;;;;;6170166;28;20023;-68
2022/07/02 15:09:12;;;;;;;0.52;0.40;;;23.10;54.70;;;;;;6170101;28;20023;-68
2022/07/02 15:12:13;;;;;;;0.40;0.40;;;23.10;54.70;;;;;;6170238;28;20158;-68
2022/07/02 15:18:33;;;;;;;0.95;0.40;;;23.10;54.70;;;;;;6159684;28;20042;-68
2022/07/02 15:21:42;;;;;;;0.52;0.50;;;23.10;54.70;;;;;;6151015;28;20122;-68
2022/07/02 15:24:46;;;;;;;1.00;0.35;;;23.10;54.70;;;;;;6159764;28;20027;-68
2022/07/02 15:27:52;;;;;;;0.50;0.25;;;23.10;54.70;;;;;;6163046;28;20026;-68
2022/07/02 15:30:53;;;;;;;0.80;0.50;;;23.10;54.80;;;;;;6156239;28;20073;-68
2022/07/02 15:33:55;;;;;;;0.82;0.52;;;23.20;54.80;;;;;;6163159;28;20118;-69
2022/07/02 15:36:56;;;;;;;2.08;0.63;;;23.20;54.80;;;;;;6169562;28;20023;-69
2022/07/02 15:39:57;;;;;;;0.38;0.38;;;23.20;54.70;;;;;;6170386;28;20089;-68
2022/07/02 15:42:58;;;;;;;0.38;0.38;;;23.30;54.70;;;;;;6168127;28;20022;-69
2022/07/02 15:45:59;;;;;;;0.40;0.40;;;23.30;54.80;;;;;;6169318;28;20018;-68
2022/07/02 15:48:59;;;;;;;0.68;0.40;;;23.30;54.80;;;;;;6169225;28;20061;-69
2022/07/02 15:52:02;;;;;;;0.40;0.40;;;23.30;54.80;;;;;;6170362;28;20051;-69
2022/07/02 15:55:10;;;;;;;0.60;0.40;;;23.30;54.80;;;;;;6168663;28;20022;-68
2022/07/02 15:58:36;;;;;;;0.60;0.40;;;23.30;54.80;;;;;;6169481;28;20047;-69
2022/07/02 16:01:37;;;;;;;1.95;0.40;;;23.30;54.80;;;;;;6169205;28;20050;-68